createdAt,value
2022-10-16T00:01:46.276Z,2.37
2022-10-16T00:04:15.389Z,2.40
2022-10-16T00:06:43.496Z,2.77
2022-10-16T00:09:11.711Z,2.63
2022-10-16T00:11:42.360Z,2.37
2022-10-16T00:14:12.684Z,2.50
2022-10-16T00:16:41.081Z,2.50
2022-10-16T00:19:09.462Z,2.77
2022-10-16T00:21:37.401Z,2.20
2022-10-16T00:24:09.225Z,2.80
2022-10-16T00:26:38.515Z,3.07
2022-10-16T00:29:08.371Z,2.43
2022-10-16T00:31:36.606Z,2.50
2022-10-16T00:34:04.594Z,2.13
2022-10-16T00:36:33.068Z,2.10
2022-10-16T00:41:35.476Z,2.53
2022-10-16T00:44:05.179Z,2.40
2022-10-16T00:46:39.188Z,2.27
2022-10-16T00:49:09.744Z,2.77
2022-10-16T00:51:39.682Z,2.50
2022-10-16T00:54:12.486Z,2.60
2022-10-16T00:56:40.433Z,2.07
2022-10-16T00:59:17.155Z,2.20
2022-10-16T01:01:46.698Z,2.37
2022-10-16T01:04:14.738Z,2.10
2022-10-16T01:06:48.075Z,2.50
2022-10-16T01:09:20.750Z,2.13
2022-10-16T01:12:00.550Z,2.20
2022-10-16T01:14:34.399Z,1.93
2022-10-16T01:17:08.577Z,2.10
2022-10-16T01:19:54.363Z,2.00
2022-10-16T01:22:26.746Z,2.20
2022-10-16T01:24:57.386Z,2.00
2022-10-16T01:27:29.330Z,2.30
2022-10-16T01:30:05.499Z,2.03
2022-10-16T01:32:38.739Z,1.70
2022-10-16T01:35:12.486Z,1.63
2022-10-16T01:37:46.804Z,1.90
2022-10-16T01:40:19.028Z,2.00
2022-10-16T01:42:52.249Z,1.70
2022-10-16T01:45:22.179Z,1.40
2022-10-16T01:47:53.657Z,1.50
2022-10-16T01:50:23.325Z,1.80
2022-10-16T01:52:54.567Z,1.60
2022-10-16T01:55:29.925Z,1.80
2022-10-16T01:58:00.813Z,1.60
2022-10-16T02:00:30.499Z,1.90
2022-10-16T02:03:01.172Z,1.40
2022-10-16T02:05:33.208Z,1.47
2022-10-16T02:08:04.666Z,1.40
2022-10-16T02:10:34.213Z,1.57
2022-10-16T02:13:08.195Z,1.20
2022-10-16T02:15:36.151Z,1.47
2022-10-16T02:18:04.768Z,1.30
2022-10-16T02:20:37.915Z,1.90
2022-10-16T02:23:06.047Z,1.73
2022-10-16T02:25:37.877Z,1.70
2022-10-16T02:28:13.582Z,1.60
2022-10-16T02:30:47.840Z,1.60
2022-10-16T02:33:17.330Z,1.60
2022-10-16T02:35:48.386Z,1.47
2022-10-16T02:38:18.036Z,1.30
2022-10-16T02:40:46.270Z,1.70
2022-10-16T02:43:15.659Z,1.93
2022-10-16T02:45:43.694Z,1.60
2022-10-16T02:48:11.679Z,2.00
2022-10-16T02:50:39.596Z,1.80
2022-10-16T02:53:07.542Z,2.00
2022-10-16T02:55:35.560Z,1.63
2022-10-16T02:58:03.482Z,1.80
2022-10-16T03:00:32.739Z,1.77
2022-10-16T03:03:00.648Z,2.00
2022-10-16T03:05:28.554Z,1.60
2022-10-16T03:07:56.628Z,1.90
2022-10-16T03:10:24.556Z,1.97
2022-10-16T03:12:52.463Z,1.50
2022-10-16T03:15:20.423Z,1.77
2022-10-16T03:17:49.937Z,1.90
2022-10-16T03:20:17.893Z,1.73
2022-10-16T03:22:45.861Z,1.80
2022-10-16T03:25:13.824Z,2.37
2022-10-16T03:27:41.794Z,1.70
2022-10-16T03:30:11.188Z,1.77
2022-10-16T03:32:39.150Z,1.87
2022-10-16T03:35:09.353Z,1.77
2022-10-16T03:37:37.289Z,1.70
2022-10-16T03:40:06.576Z,1.50
2022-10-16T03:42:34.509Z,1.73
2022-10-16T03:45:02.438Z,1.60
2022-10-16T03:47:30.371Z,1.60
2022-10-16T03:49:58.313Z,1.70
2022-10-16T03:52:28.157Z,1.93
2022-10-16T03:54:56.278Z,1.77
2022-10-16T03:57:24.577Z,2.00
2022-10-16T03:59:52.853Z,1.70
2022-10-16T04:02:20.793Z,1.63
2022-10-16T04:04:48.726Z,1.77
2022-10-16T04:07:16.832Z,1.60
2022-10-16T04:09:46.211Z,1.97
2022-10-16T04:12:14.222Z,1.57
2022-10-16T04:14:42.267Z,2.07
2022-10-16T04:17:10.303Z,1.90
2022-10-16T04:19:38.481Z,2.00
2022-10-16T04:22:06.528Z,1.70
2022-10-16T04:24:34.499Z,1.70
2022-10-16T04:27:03.924Z,1.60
2022-10-16T04:29:31.940Z,1.90
2022-10-16T04:31:59.963Z,1.83
2022-10-16T04:34:27.994Z,1.57
2022-10-16T04:36:56.005Z,1.67
2022-10-16T04:39:24.049Z,1.73
2022-10-16T04:41:52.037Z,1.67
2022-10-16T04:44:21.442Z,1.90
2022-10-16T04:46:49.840Z,1.93
2022-10-16T04:49:17.938Z,1.57
2022-10-16T04:51:45.927Z,1.80
2022-10-16T04:54:14.032Z,1.70
2022-10-16T04:56:47.600Z,1.83
2022-10-16T04:59:16.038Z,2.00
2022-10-16T05:01:45.739Z,2.67
2022-10-16T05:04:16.058Z,2.10
2022-10-16T05:06:44.728Z,2.07
2022-10-16T05:09:12.865Z,1.70
2022-10-16T05:11:40.877Z,1.53
2022-10-16T05:14:08.893Z,2.03
2022-10-16T05:16:36.898Z,1.77
2022-10-16T05:21:54.417Z,1.50
2022-10-16T05:24:22.385Z,1.47
2022-10-16T05:26:50.446Z,1.50
2022-10-16T05:29:18.446Z,1.93
2022-10-16T05:31:46.461Z,1.40
2022-10-16T05:34:15.819Z,1.30
2022-10-16T05:36:46.322Z,1.60
2022-10-16T05:39:15.735Z,1.97
2022-10-16T05:41:43.845Z,1.40
2022-10-16T05:44:12.264Z,1.57
2022-10-16T05:46:40.288Z,2.00
2022-10-16T05:49:08.278Z,1.70
2022-10-16T05:51:37.663Z,1.50
2022-10-16T05:54:06.136Z,1.60
2022-10-16T05:56:34.130Z,1.67
2022-10-16T05:59:02.137Z,1.70
2022-10-16T06:01:30.231Z,1.70
2022-10-16T06:03:58.824Z,1.60
2022-10-16T06:06:29.333Z,1.67
2022-10-16T06:09:00.686Z,1.67
2022-10-16T06:11:31.556Z,1.90
2022-10-16T06:14:02.860Z,2.67
2022-10-16T06:16:31.211Z,2.10
2022-10-16T06:19:00.210Z,2.10
2022-10-16T06:21:29.871Z,2.10
2022-10-16T06:24:00.106Z,1.90
2022-10-16T06:26:30.034Z,1.80
2022-10-16T06:28:59.029Z,2.43
2022-10-16T06:31:28.611Z,1.90
2022-10-16T06:33:57.217Z,1.73
2022-10-16T06:36:25.701Z,1.50
2022-10-16T06:38:53.933Z,1.70
2022-10-16T06:41:24.886Z,1.70
2022-10-16T06:43:53.257Z,1.80
2022-10-16T06:46:23.781Z,1.87
2022-10-16T06:48:51.827Z,1.87
2022-10-16T06:51:21.591Z,1.60
2022-10-16T06:54:06.889Z,1.67
2022-10-16T06:56:36.752Z,1.70
2022-10-16T06:59:05.369Z,1.83
2022-10-16T07:01:33.543Z,1.90
2022-10-16T07:04:03.050Z,1.80
2022-10-16T07:06:34.086Z,1.80
2022-10-16T07:09:05.162Z,1.70
2022-10-16T07:11:33.268Z,1.80
2022-10-16T07:14:02.755Z,2.27
2022-10-16T07:16:32.267Z,1.97
2022-10-16T07:19:02.182Z,2.00
2022-10-16T07:21:31.675Z,1.70
2022-10-16T07:24:02.222Z,2.07
2022-10-16T07:26:32.070Z,1.20
2022-10-16T07:29:00.396Z,1.33
2022-10-16T07:31:30.431Z,1.37
2022-10-16T07:34:00.355Z,1.30
2022-10-16T07:36:28.621Z,1.00
2022-10-16T07:38:59.002Z,0.93
2022-10-16T07:41:29.079Z,1.10
2022-10-16T07:43:58.344Z,0.90
2022-10-16T07:46:26.402Z,0.90
2022-10-16T07:48:55.795Z,0.73
2022-10-16T07:51:25.793Z,0.75
2022-10-16T07:53:54.503Z,0.85
2022-10-16T07:56:23.173Z,0.80
2022-10-16T07:58:51.711Z,0.75
2022-10-16T08:01:20.957Z,1.13
2022-10-16T08:03:50.896Z,1.02
2022-10-16T08:06:25.061Z,0.90
2022-10-16T08:08:56.271Z,1.13
2022-10-16T08:11:24.417Z,0.90
2022-10-16T08:13:52.454Z,0.70
2022-10-16T08:16:20.520Z,0.93
2022-10-16T08:18:48.575Z,0.90
2022-10-16T08:21:21.265Z,0.70
2022-10-16T08:23:55.069Z,0.75
2022-10-16T08:26:26.897Z,0.80
2022-10-16T08:28:55.065Z,0.63
2022-10-16T08:31:23.637Z,0.70
2022-10-16T08:33:52.442Z,0.75
2022-10-16T08:36:20.474Z,0.70
2022-10-16T08:38:51.962Z,0.50
2022-10-16T08:41:34.366Z,0.60
2022-10-16T08:44:17.977Z,0.50
2022-10-16T08:46:53.843Z,0.50
2022-10-16T08:49:22.081Z,0.70
2022-10-16T08:51:51.793Z,0.70
2022-10-16T08:54:34.664Z,0.40
2022-10-16T08:57:11.423Z,0.70
2022-10-16T08:59:39.732Z,0.63
2022-10-16T09:02:27.633Z,0.82
2022-10-16T09:05:18.423Z,0.82
2022-10-16T09:07:53.310Z,0.70
2022-10-16T09:10:34.042Z,0.90
2022-10-16T09:13:16.629Z,0.88
2022-10-16T09:15:53.842Z,0.68
2022-10-16T09:18:31.823Z,0.45
2022-10-16T09:21:09.819Z,0.80
2022-10-16T09:23:39.696Z,0.60
2022-10-16T09:26:14.213Z,0.75
2022-10-16T09:28:42.902Z,0.73
2022-10-16T09:31:20.861Z,0.40
2022-10-16T09:33:54.628Z,0.93
2022-10-16T09:36:23.898Z,0.60
2022-10-16T09:38:54.859Z,0.60
2022-10-16T09:41:26.252Z,0.70
2022-10-16T09:43:58.076Z,0.60
2022-10-16T09:46:31.368Z,0.50
2022-10-16T09:49:01.738Z,0.50
2022-10-16T09:51:31.935Z,0.45
2022-10-16T09:54:02.235Z,0.40
2022-10-16T09:56:34.366Z,0.47
2022-10-16T09:59:05.290Z,0.60
2022-10-16T10:01:39.059Z,0.57
2022-10-16T10:04:08.318Z,0.70
2022-10-16T10:06:38.993Z,0.50
2022-10-16T10:09:17.486Z,0.40
2022-10-16T10:11:51.062Z,0.55
2022-10-16T10:14:31.004Z,0.57
2022-10-16T10:17:14.765Z,0.40
2022-10-16T10:19:46.709Z,0.52
2022-10-16T10:22:26.599Z,0.55
2022-10-16T10:25:16.697Z,0.55
2022-10-16T10:27:58.482Z,0.55
2022-10-16T10:30:31.493Z,0.60
2022-10-16T10:33:14.159Z,0.47
2022-10-16T10:35:51.162Z,0.52
2022-10-16T10:38:32.862Z,0.50
2022-10-16T10:41:20.594Z,0.60
2022-10-16T10:44:03.265Z,0.40
2022-10-16T10:46:36.822Z,0.40
2022-10-16T10:49:19.361Z,0.70
2022-10-16T10:52:00.878Z,0.40
2022-10-16T10:54:38.440Z,0.40
2022-10-16T10:57:12.376Z,0.50
2022-10-16T11:00:06.990Z,0.47
2022-10-16T11:02:41.143Z,0.43
2022-10-16T11:05:33.410Z,0.40
2022-10-16T11:08:04.469Z,0.45
2022-10-16T11:10:36.824Z,0.45
2022-10-16T11:13:22.260Z,0.43
2022-10-16T11:15:55.866Z,0.35
2022-10-16T11:18:29.149Z,0.50
2022-10-16T11:21:01.959Z,0.40
2022-10-16T11:23:33.329Z,0.45
2022-10-16T11:26:07.340Z,0.50
2022-10-16T11:28:39.279Z,0.50
2022-10-16T11:31:15.841Z,0.45
2022-10-16T11:33:47.325Z,0.22
2022-10-16T11:36:18.829Z,0.32
2022-10-16T11:38:54.880Z,0.20
2022-10-16T11:41:30.033Z,0.28
2022-10-16T11:44:16.284Z,0.15
2022-10-16T11:47:00.624Z,0.30
2022-10-16T11:50:05.343Z,0.28
2022-10-16T11:52:41.410Z,0.20
2022-10-16T11:55:18.826Z,0.20
2022-10-16T11:57:49.873Z,0.30
2022-10-16T12:00:25.878Z,0.40
2022-10-16T12:03:03.719Z,0.25
2022-10-16T12:05:42.242Z,0.20
2022-10-16T12:08:13.097Z,0.20
2022-10-16T12:10:42.953Z,0.22
2022-10-16T12:13:35.132Z,0.32
2022-10-16T12:16:22.129Z,0.40
2022-10-16T12:19:04.450Z,0.40
2022-10-16T12:21:33.716Z,0.40
2022-10-16T12:24:06.352Z,0.25
2022-10-16T12:26:39.014Z,0.43
2022-10-16T12:29:21.913Z,0.40
2022-10-16T12:31:58.380Z,0.20
2022-10-16T12:34:31.962Z,0.32
2022-10-16T12:37:16.054Z,0.40
2022-10-16T12:39:44.332Z,0.45
2022-10-16T12:42:35.310Z,0.30
2022-10-16T12:45:15.167Z,0.47
2022-10-16T12:47:52.829Z,0.50
2022-10-16T12:50:31.704Z,0.22
2022-10-16T12:53:00.403Z,0.40
2022-10-16T12:55:32.994Z,0.68
2022-10-16T12:58:19.695Z,0.43
2022-10-16T13:00:52.891Z,0.22
2022-10-16T13:04:00.305Z,0.28
2022-10-16T13:06:37.276Z,0.30
2022-10-16T13:09:20.804Z,0.40
2022-10-16T13:12:05.021Z,0.50
2022-10-16T13:15:00.300Z,0.40
2022-10-16T13:17:37.260Z,0.30
2022-10-16T13:20:14.139Z,0.75
2022-10-16T13:22:55.217Z,0.30
2022-10-16T13:25:35.310Z,1.73
2022-10-16T13:28:04.547Z,0.32
2022-10-16T13:30:34.715Z,0.40
2022-10-16T13:33:04.826Z,0.30
2022-10-16T13:35:34.738Z,0.30
2022-10-16T13:38:13.266Z,0.40
2022-10-16T13:40:51.894Z,0.28
2022-10-16T13:43:21.404Z,0.45
2022-10-16T13:45:58.043Z,0.30
2022-10-16T13:48:26.163Z,0.40
2022-10-16T13:51:08.839Z,0.20
2022-10-16T13:53:38.446Z,0.50
2022-10-16T13:56:08.329Z,0.20
2022-10-16T13:58:36.299Z,0.50
2022-10-16T14:01:08.242Z,0.30
2022-10-16T14:03:37.669Z,0.30
2022-10-16T14:06:10.008Z,0.30
2022-10-16T14:08:44.447Z,0.30
2022-10-16T14:11:13.104Z,0.52
2022-10-16T14:13:45.255Z,0.52
2022-10-16T14:16:19.787Z,0.30
2022-10-16T14:18:55.179Z,0.40
2022-10-16T14:21:23.596Z,0.50
2022-10-16T14:23:53.016Z,0.30
2022-10-16T14:26:23.089Z,0.60
2022-10-16T14:29:03.317Z,2.88
2022-10-16T14:31:34.295Z,0.80
2022-10-16T14:34:02.704Z,0.60
2022-10-16T14:36:31.849Z,0.50
2022-10-16T14:39:04.245Z,0.65
2022-10-16T14:41:33.397Z,2.58
2022-10-16T14:44:05.338Z,1.42
2022-10-16T14:46:37.655Z,1.08
2022-10-16T14:49:15.814Z,2.85
2022-10-16T14:51:45.744Z,2.13
2022-10-16T14:54:15.914Z,0.98
2022-10-16T14:56:49.968Z,1.70
2022-10-16T14:59:21.223Z,1.70
2022-10-16T15:01:49.619Z,1.70
2022-10-16T15:04:18.778Z,1.02
2022-10-16T15:06:46.834Z,1.00
2022-10-16T15:09:16.184Z,0.80
2022-10-16T15:11:44.958Z,1.10
2022-10-16T15:16:47.971Z,0.80
2022-10-16T15:19:15.918Z,0.90
2022-10-16T15:21:44.543Z,0.80
2022-10-16T15:24:19.213Z,0.68
2022-10-16T15:26:50.247Z,0.57
2022-10-16T15:29:18.368Z,0.82
2022-10-16T15:31:48.402Z,0.70
2022-10-16T15:34:17.200Z,0.70
2022-10-16T15:36:45.088Z,0.90
2022-10-16T15:39:17.266Z,0.90
2022-10-16T15:41:48.849Z,1.15
2022-10-16T15:44:16.925Z,0.75
2022-10-16T15:46:45.138Z,1.00
2022-10-16T15:49:14.295Z,0.70
2022-10-16T15:51:43.635Z,1.00
2022-10-16T15:54:11.738Z,0.90
2022-10-16T15:56:41.131Z,1.00
2022-10-16T15:59:09.139Z,1.40
2022-10-16T16:01:37.653Z,1.30
2022-10-16T16:04:15.373Z,1.20
2022-10-16T16:06:53.921Z,1.30
2022-10-16T16:09:21.872Z,1.52
2022-10-16T16:11:53.170Z,1.80
2022-10-16T16:14:21.519Z,2.05
2022-10-16T16:16:49.986Z,1.85
2022-10-16T16:19:21.814Z,1.70
2022-10-16T16:21:50.134Z,1.30
2022-10-16T16:24:18.270Z,1.40
2022-10-16T16:26:46.275Z,1.55
2022-10-16T16:29:17.212Z,1.10
2022-10-16T16:31:45.218Z,1.20
2022-10-16T16:34:13.779Z,1.13
2022-10-16T16:36:41.951Z,1.67
2022-10-16T16:39:11.403Z,1.35
2022-10-16T16:41:39.412Z,1.13
2022-10-16T16:44:10.535Z,1.25
2022-10-16T16:46:40.517Z,1.60
2022-10-16T16:49:09.218Z,1.70
2022-10-16T16:51:39.848Z,3.47
2022-10-16T16:54:09.592Z,3.53
2022-10-16T16:56:37.643Z,4.18
2022-10-16T16:59:05.857Z,3.65
2022-10-16T17:01:34.001Z,3.63
2022-10-16T17:04:03.435Z,3.65
2022-10-16T17:06:32.002Z,3.03
2022-10-16T17:09:00.713Z,3.30
2022-10-16T17:11:29.350Z,2.47
2022-10-16T17:13:59.276Z,2.28
2022-10-16T17:16:30.173Z,2.50
2022-10-16T17:19:01.760Z,2.78
2022-10-16T17:21:32.957Z,2.97
2022-10-16T17:24:02.005Z,2.00
2022-10-16T17:26:30.888Z,2.13
2022-10-16T17:29:00.422Z,3.28
2022-10-16T17:31:30.224Z,2.95
2022-10-16T17:33:59.496Z,4.47
2022-10-16T17:36:29.622Z,3.78
2022-10-16T17:39:01.605Z,4.20
2022-10-16T17:41:29.553Z,3.90
2022-10-16T17:43:57.603Z,3.38
2022-10-16T17:46:25.861Z,3.78
2022-10-16T17:48:55.763Z,6.18
2022-10-16T17:51:26.897Z,4.18
2022-10-16T17:53:56.654Z,4.50
2022-10-16T17:56:27.066Z,3.72
2022-10-16T17:58:56.829Z,2.85
2022-10-16T18:01:26.911Z,1.90
2022-10-16T18:03:57.233Z,1.88
2022-10-16T18:06:25.773Z,1.40
2022-10-16T18:08:54.075Z,1.52
2022-10-16T18:11:23.186Z,1.10
2022-10-16T18:13:55.199Z,1.10
2022-10-16T18:16:24.118Z,1.35
2022-10-16T18:18:52.206Z,1.00
2022-10-16T18:21:21.648Z,1.55
2022-10-16T18:23:52.221Z,1.55
2022-10-16T18:26:21.181Z,1.30
2022-10-16T18:28:50.988Z,1.60
2022-10-16T18:31:20.505Z,1.80
2022-10-16T18:33:50.540Z,1.58
2022-10-16T18:36:21.185Z,1.73
2022-10-16T18:38:49.651Z,1.45
2022-10-16T18:41:18.085Z,1.80
2022-10-16T18:43:46.075Z,1.52
2022-10-16T18:46:17.429Z,1.77
2022-10-16T18:48:48.230Z,2.53
2022-10-16T18:51:18.551Z,2.97
2022-10-16T18:53:48.653Z,2.53
2022-10-16T18:56:17.983Z,2.80
2022-10-16T18:58:48.395Z,3.17
2022-10-16T19:01:20.850Z,2.33
2022-10-16T19:03:54.158Z,2.08
2022-10-16T19:06:23.461Z,1.88
2022-10-16T19:08:51.553Z,1.65
2022-10-16T19:11:21.843Z,1.80
2022-10-16T19:13:51.441Z,2.00
2022-10-16T19:16:27.198Z,1.95
2022-10-16T19:19:04.086Z,1.70
2022-10-16T19:21:36.069Z,2.10
2022-10-16T19:24:05.566Z,1.58
2022-10-16T19:26:36.828Z,2.20
2022-10-16T19:29:08.294Z,2.15
2022-10-16T19:31:36.791Z,1.60
2022-10-16T19:34:07.823Z,1.80
2022-10-16T19:36:37.290Z,1.80
2022-10-16T19:39:07.468Z,1.63
2022-10-16T19:41:38.212Z,1.63
2022-10-16T19:44:08.545Z,1.48
2022-10-16T19:46:37.173Z,1.20
2022-10-16T19:49:12.472Z,1.02
2022-10-16T19:51:41.217Z,1.02
2022-10-16T19:54:12.518Z,1.47
2022-10-16T19:56:41.529Z,0.88
2022-10-16T19:59:13.132Z,1.50
2022-10-16T20:01:41.966Z,2.42
2022-10-16T20:04:12.991Z,3.20
2022-10-16T20:06:41.251Z,3.90
2022-10-16T20:09:09.911Z,3.35
2022-10-16T20:11:38.738Z,3.00
2022-10-16T20:14:07.842Z,3.00
2022-10-16T20:16:36.833Z,2.95
2022-10-16T20:19:05.728Z,3.07
2022-10-16T20:21:36.399Z,1.42
2022-10-16T20:24:06.584Z,1.33
2022-10-16T20:26:35.852Z,1.50
2022-10-16T20:29:05.023Z,1.20
2022-10-16T20:31:35.037Z,1.53
2022-10-16T20:34:06.169Z,1.50
2022-10-16T20:36:37.333Z,1.50
2022-10-16T20:39:06.809Z,1.57
2022-10-16T20:41:35.007Z,1.90
2022-10-16T20:44:04.450Z,1.77
2022-10-16T20:46:32.551Z,2.40
2022-10-16T20:49:10.586Z,1.80
2022-10-16T20:51:41.276Z,2.10
2022-10-16T20:54:09.302Z,1.90
2022-10-16T20:56:38.579Z,1.87
2022-10-16T20:59:07.365Z,1.30
2022-10-16T21:01:36.711Z,1.53
2022-10-16T21:04:07.450Z,1.80
2022-10-16T21:06:38.203Z,1.70
2022-10-16T21:09:08.394Z,1.38
2022-10-16T21:11:37.725Z,1.70
2022-10-16T21:14:08.532Z,1.80
2022-10-16T21:16:36.516Z,1.73
2022-10-16T21:19:06.041Z,2.00
2022-10-16T21:21:36.391Z,2.00
2022-10-16T21:24:04.789Z,1.90
2022-10-16T21:26:34.647Z,1.90
2022-10-16T21:29:04.831Z,1.77
2022-10-16T21:31:34.403Z,1.50
2022-10-16T21:34:02.684Z,1.27
2022-10-16T21:36:33.267Z,1.70
2022-10-16T21:39:03.580Z,1.80
2022-10-16T21:41:33.181Z,1.77
2022-10-16T21:44:02.170Z,2.00
2022-10-16T21:46:32.861Z,1.70
2022-10-16T21:49:02.621Z,1.30
2022-10-16T21:51:33.811Z,1.60
2022-10-16T21:54:02.442Z,1.50
2022-10-16T21:56:30.635Z,1.60
2022-10-16T21:59:00.095Z,1.60
2022-10-16T22:01:29.726Z,1.60
2022-10-16T22:03:57.938Z,1.20
2022-10-16T22:06:28.032Z,1.90
2022-10-16T22:08:59.529Z,1.53
2022-10-16T22:11:29.700Z,1.40
2022-10-16T22:13:59.231Z,1.50
2022-10-16T22:16:28.146Z,1.50
2022-10-16T22:18:57.889Z,1.63
2022-10-16T22:21:26.127Z,1.77
2022-10-16T22:23:54.054Z,1.60
2022-10-16T22:26:22.658Z,1.77
2022-10-16T22:28:50.889Z,2.00
2022-10-16T22:31:21.649Z,1.87
2022-10-16T22:33:54.118Z,1.77
2022-10-16T22:36:22.072Z,1.73
2022-10-16T22:38:50.027Z,1.80
2022-10-16T22:41:18.377Z,1.50
2022-10-16T22:43:48.358Z,1.50
2022-10-16T22:46:19.863Z,1.60
2022-10-16T22:48:49.267Z,1.40
2022-10-16T22:51:17.617Z,1.50
2022-10-16T22:53:45.917Z,1.70
2022-10-16T22:56:14.328Z,1.63
2022-10-16T22:58:42.522Z,1.80
2022-10-16T23:01:15.423Z,1.67
2022-10-16T23:03:43.406Z,1.87
2022-10-16T23:06:12.703Z,1.47
2022-10-16T23:08:40.815Z,2.37
2022-10-16T23:11:10.094Z,1.60
2022-10-16T23:13:38.596Z,1.63
2022-10-16T23:16:07.741Z,1.63
2022-10-16T23:18:36.069Z,2.13
2022-10-16T23:21:06.477Z,1.77
2022-10-16T23:23:37.133Z,1.83
2022-10-16T23:26:05.337Z,1.77
2022-10-16T23:28:33.377Z,1.80
2022-10-16T23:31:01.342Z,1.97
2022-10-16T23:33:29.249Z,1.57
2022-10-16T23:35:57.219Z,1.70
2022-10-16T23:38:25.521Z,1.67
2022-10-16T23:40:54.928Z,1.60
2022-10-16T23:43:22.966Z,1.70
2022-10-16T23:45:51.058Z,1.70
2022-10-16T23:48:19.004Z,1.73
2022-10-16T23:50:46.996Z,1.80
2022-10-16T23:53:15.050Z,1.90
2022-10-16T23:55:43.270Z,1.87
2022-10-16T23:58:12.664Z,1.70
